Laguna de Duero, Spain
Current Conditions -  °F | °C
As of 9:30 PM on Sunday 23 Nov 2014 (Local Time) from LEVD Reporting Station
Clear Clear  
Wind Chill: 45°   Ceiling: Unl
Heat Index: 48°   Visibility: 6mi
Dew Point: 48°   Wind: 8mph
Humidity: 100%   Direction: 20°NNE
Pressure: 29.97"   Gusts: NA
Location:  41.58°N, 4.72°W
Report Text: LEVD 232030Z 02007KT CAVOK 09/09 Q1015
Loading
Personal Weather Stations






























Interactive Weather Map New forecast layout! Learn more

10-Day Weather Forecast

Advertisements
Track Severe Weather on mobile